Time;durP1;ratioP1;P1;durP2;ratioP2;P2;SDS_P1;SDS_P2;PMS_P1;PMS_P2;Temp;Humidity;BMP_temperature;BMP_pressure;BME280_temperature;BME280_humidity;BME280_pressure;Samples;Min_cycle;Max_cycle;Signal;HPM_P1;HPM_P2
2022/03/13 00:01:32;;;;;;;15.70;11.23;;;18.20;76.00;;;;;;4957200;28;96017;-58
2022/03/13 00:04:04;;;;;;;15.13;12.23;;;18.20;76.00;;;;;;4963964;28;96464;-56
2022/03/13 00:06:35;;;;;;;15.18;11.38;;;18.30;76.00;;;;;;4965551;28;95697;-57
2022/03/13 00:09:12;;;;;;;12.90;11.50;;;18.30;76.00;;;;;;4966971;28;95769;-54
2022/03/13 00:11:45;;;;;;;12.27;10.75;;;18.30;75.90;;;;;;4967309;28;95554;-57
2022/03/13 00:14:20;;;;;;;14.90;11.15;;;18.40;75.90;;;;;;4966438;28;96738;-57
2022/03/13 00:16:54;;;;;;;11.82;9.88;;;18.40;75.70;;;;;;4958291;28;95607;-58
2022/03/13 00:19:25;;;;;;;12.30;10.52;;;18.40;75.90;;;;;;4964315;28;95900;-57
2022/03/13 00:21:56;;;;;;;12.75;11.18;;;18.50;76.00;;;;;;4979155;28;96032;-56
2022/03/13 00:24:28;;;;;;;13.70;10.17;;;18.50;75.80;;;;;;4966028;28;96550;-58
2022/03/13 00:27:01;;;;;;;15.65;10.90;;;18.50;75.80;;;;;;4964339;28;95913;-54
2022/03/13 00:29:31;;;;;;;17.30;10.65;;;18.50;75.90;;;;;;4966222;28;95654;-56
2022/03/13 00:32:03;;;;;;;11.23;9.13;;;18.60;75.60;;;;;;4958753;28;95808;-54
2022/03/13 00:34:35;;;;;;;12.75;10.55;;;18.60;75.60;;;;;;4963898;28;95934;-53
2022/03/13 00:37:05;;;;;;;11.70;10.07;;;18.70;75.50;;;;;;4964236;28;96005;-55
2022/03/13 00:39:39;;;;;;;13.23;9.77;;;18.70;75.50;;;;;;4973814;28;96967;-56
2022/03/13 00:42:12;;;;;;;13.15;9.48;;;18.80;75.50;;;;;;4942355;28;95875;-57
2022/03/13 00:44:44;;;;;;;12.05;9.82;;;18.80;75.40;;;;;;4966876;28;95943;-56
2022/03/13 00:47:15;;;;;;;10.63;8.77;;;18.90;75.40;;;;;;4957616;28;96061;-56
2022/03/13 00:49:46;;;;;;;10.15;8.63;;;18.90;75.50;;;;;;4967627;28;95460;-56
2022/03/13 00:52:17;;;;;;;11.45;9.05;;;19.00;75.50;;;;;;4967711;28;95877;-59
2022/03/13 00:54:49;;;;;;;10.15;7.68;;;19.00;75.60;;;;;;4968990;28;95916;-57
2022/03/13 00:57:19;;;;;;;;;;;19.10;75.80;;;;;;4970656;28;95895;-56
2022/03/13 00:59:50;;;;;;;10.68;7.95;;;19.10;76.00;;;;;;4971829;28;96156;-57
2022/03/13 01:02:20;;;;;;;11.70;8.33;;;19.10;75.90;;;;;;4964423;28;95722;-61
2022/03/13 01:04:54;;;;;;;9.43;7.45;;;19.20;76.10;;;;;;4959844;28;98304;-59
2022/03/13 01:07:25;;;;;;;10.63;7.75;;;19.20;76.10;;;;;;4970403;28;96237;-57
2022/03/13 01:09:57;;;;;;;;;;;19.30;76.30;;;;;;4969152;28;95847;-59
2022/03/13 01:12:27;;;;;;;;;;;19.30;76.70;;;;;;4972332;28;96275;-56
2022/03/13 01:14:58;;;;;;;9.43;6.78;;;19.30;77.00;;;;;;4971531;28;96607;-57
2022/03/13 01:17:29;;;;;;;7.53;5.97;;;19.30;77.00;;;;;;4962274;28;95282;-59
2022/03/13 01:20:02;;;;;;;6.57;4.97;;;19.30;77.20;;;;;;4985721;28;95556;-61
2022/03/13 01:22:32;;;;;;;6.03;5.43;;;19.30;77.20;;;;;;4971497;28;95677;-59
2022/03/13 01:25:02;;;;;;;8.38;5.68;;;19.40;77.60;;;;;;4968425;28;95864;-56
2022/03/13 01:27:34;;;;;;;5.05;4.55;;;19.40;77.40;;;;;;4968712;28;95949;-58
2022/03/13 01:30:08;;;;;;;7.93;5.28;;;19.40;77.50;;;;;;4970751;28;95802;-57
2022/03/13 01:32:39;;;;;;;6.45;4.50;;;19.40;77.50;;;;;;4960469;28;95522;-58
2022/03/13 01:35:10;;;;;;;4.65;4.07;;;19.40;77.50;;;;;;4969550;28;96322;-61
2022/03/13 01:37:41;;;;;;;5.40;4.50;;;19.50;75.60;;;;;;4996201;28;96220;-58
2022/03/13 01:40:24;;;;;;;6.18;4.93;;;19.50;77.70;;;;;;4959839;28;96964;-62
2022/03/13 01:42:55;;;;;;;5.72;4.35;;;19.60;77.50;;;;;;4965180;28;95778;-59
2022/03/13 01:45:27;;;;;;;4.55;3.80;;;19.60;77.20;;;;;;4961179;28;96065;-59
2022/03/13 01:47:57;;;;;;;5.65;4.28;;;19.70;77.00;;;;;;4969261;28;95641;-60
2022/03/13 01:50:27;;;;;;;4.70;4.00;;;19.80;76.80;;;;;;4965921;28;95654;-58
2022/03/13 01:52:58;;;;;;;4.45;3.90;;;19.90;76.60;;;;;;4969096;28;97878;-59
2022/03/13 01:55:29;;;;;;;4.95;4.00;;;19.90;76.50;;;;;;4969565;28;95881;-59
2022/03/13 01:58:02;;;;;;;3.75;3.30;;;20.00;76.30;;;;;;4968647;28;95975;-59
2022/03/13 02:00:33;;;;;;;5.80;3.85;;;20.10;76.40;;;;;;4948375;28;96639;-59
2022/03/13 02:03:04;;;;;;;9.57;5.00;;;20.10;76.90;;;;;;4967695;28;95555;-61
2022/03/13 02:05:35;;;;;;;;;;;20.20;77.40;;;;;;4959495;28;96661;-59
2022/03/13 02:08:19;;;;;;;10.10;4.70;;;20.20;76.60;;;;;;4952571;28;97360;-60
2022/03/13 02:10:50;;;;;;;8.35;4.80;;;20.30;76.70;;;;;;4963056;28;95892;-62
2022/03/13 02:13:23;;;;;;;9.93;4.43;;;20.40;76.80;;;;;;4968560;28;95806;-61
2022/03/13 02:15:55;;;;;;;6.57;4.47;;;20.50;74.80;;;;;;4958790;28;95938;-61
2022/03/13 02:18:26;;;;;;;6.55;4.18;;;20.70;76.90;;;;;;4969575;28;95951;-60
2022/03/13 02:20:57;;;;;;;6.82;3.72;;;20.80;76.80;;;;;;4984699;28;95707;-60
2022/03/13 02:23:31;;;;;;;5.10;3.78;;;20.90;76.80;;;;;;4970659;28;95572;-62
2022/03/13 02:26:07;;;;;;;6.07;3.88;;;20.90;76.70;;;;;;4966196;28;95945;-61
2022/03/13 02:28:51;;;;;;;4.35;3.50;;;21.10;76.80;;;;;;4970043;28;95901;-60
2022/03/13 02:31:36;;;;;;;5.85;4.28;;;21.20;76.90;;;;;;4962091;28;96001;-61
2022/03/13 02:34:13;;;;;;;6.57;3.60;;;21.30;76.70;;;;;;4969372;28;95932;-62
2022/03/13 02:36:44;;;;;;;6.43;3.83;;;21.30;76.70;;;;;;4969031;28;96002;-60
2022/03/13 02:39:16;;;;;;;5.15;3.47;;;21.50;76.60;;;;;;4960152;28;95857;-61
2022/03/13 02:41:48;;;;;;;5.32;3.35;;;21.50;75.10;;;;;;4957872;28;98941;-61
2022/03/13 02:44:21;;;;;;;3.92;3.42;;;21.50;72.40;;;;;;4979143;28;96117;-61
2022/03/13 02:46:56;;;;;;;5.45;3.67;;;21.50;73.90;;;;;;4957366;28;95908;-61
2022/03/13 02:49:28;;;;;;;3.63;3.33;;;21.50;73.60;;;;;;4977480;28;97226;-61
2022/03/13 02:52:02;;;;;;;6.05;3.45;;;21.50;73.40;;;;;;4964127;28;96373;-61
2022/03/13 02:54:33;;;;;;;4.85;3.53;;;21.60;73.30;;;;;;4965337;28;95354;-62
2022/03/13 02:57:05;;;;;;;4.32;3.33;;;21.60;73.30;;;;;;4964031;28;96116;-61
2022/03/13 02:59:36;;;;;;;4.53;3.25;;;21.60;73.10;;;;;;4964301;28;95692;-63
2022/03/13 03:02:06;;;;;;;7.07;2.85;;;21.70;72.20;;;;;;4955569;28;95303;-62
2022/03/13 03:04:36;;;;;;;5.63;3.27;;;21.70;72.70;;;;;;4964788;28;96266;-61
2022/03/13 03:07:07;;;;;;;4.10;3.20;;;21.70;72.50;;;;;;4963384;28;95870;-62
2022/03/13 03:09:38;;;;;;;5.25;3.33;;;21.70;72.60;;;;;;4964707;28;96199;-62
2022/03/13 03:12:10;;;;;;;3.53;2.75;;;21.80;72.20;;;;;;4965043;28;95685;-61
2022/03/13 03:14:41;;;;;;;4.15;3.25;;;21.80;72.20;;;;;;4964267;28;95831;-62
2022/03/13 03:17:13;;;;;;;;;;;21.80;72.00;;;;;;4971587;28;97003;-63
2022/03/13 03:19:44;;;;;;;2.30;2.10;;;21.90;71.70;;;;;;4994910;28;96255;-61
2022/03/13 03:22:15;;;;;;;3.65;2.70;;;21.90;71.80;;;;;;4948164;28;95943;-62
2022/03/13 03:24:48;;;;;;;4.13;2.65;;;22.00;71.70;;;;;;4964535;28;95834;-62
2022/03/13 03:27:19;;;;;;;2.63;2.42;;;22.00;71.70;;;;;;4963271;28;95959;-61
2022/03/13 03:29:50;;;;;;;5.10;2.70;;;22.00;71.50;;;;;;4965088;28;97160;-60
2022/03/13 03:32:21;;;;;;;4.40;1.92;;;22.10;71.30;;;;;;4964164;28;95944;-61
2022/03/13 03:34:53;;;;;;;2.22;2.03;;;22.10;71.30;;;;;;4980619;28;95905;-61
2022/03/13 03:37:23;;;;;;;;;;;22.10;71.20;;;;;;4982464;28;98332;-61
2022/03/13 03:39:54;;;;;;;3.30;2.58;;;22.10;71.20;;;;;;4960911;28;96210;-60
2022/03/13 03:42:25;;;;;;;3.25;2.30;;;22.20;71.00;;;;;;4959697;28;96280;-62
2022/03/13 03:44:55;;;;;;;;;;;22.20;71.10;;;;;;4972001;28;95555;-61
2022/03/13 03:47:26;;;;;;;4.65;2.03;;;22.30;70.90;;;;;;4964618;28;98886;-60
2022/03/13 03:49:56;;;;;;;5.22;2.58;;;22.30;70.80;;;;;;4973630;28;95348;-62
2022/03/13 03:52:28;;;;;;;2.03;1.80;;;22.30;70.60;;;;;;4970253;28;96308;-60
2022/03/13 03:55:01;;;;;;;3.72;2.13;;;22.30;70.60;;;;;;4966116;28;95988;-61
2022/03/13 03:57:33;;;;;;;2.65;2.10;;;22.40;70.50;;;;;;4966298;28;97493;-61
2022/03/13 04:00:07;;;;;;;2.03;1.90;;;22.40;70.50;;;;;;4969530;28;95636;-60
2022/03/13 04:02:41;;;;;;;2.90;1.90;;;22.50;70.30;;;;;;4939194;28;95384;-61
2022/03/13 04:05:13;;;;;;;1.90;1.80;;;22.50;70.40;;;;;;4975751;28;95828;-61
2022/03/13 04:07:46;;;;;;;1.70;1.60;;;22.50;68.50;;;;;;4945362;28;96491;-62
2022/03/13 04:10:17;;;;;;;1.90;1.75;;;22.50;70.00;;;;;;4944635;28;95314;-61
2022/03/13 04:12:48;;;;;;;2.95;2.03;;;22.60;70.10;;;;;;4943170;28;95818;-58
2022/03/13 04:15:19;;;;;;;2.05;1.85;;;22.60;69.40;;;;;;4945093;28;95311;-57
2022/03/13 04:17:55;;;;;;;2.08;1.88;;;22.60;67.20;;;;;;4993488;28;99466;-58
2022/03/13 04:20:27;;;;;;;1.80;1.55;;;22.60;63.70;;;;;;4963617;28;95616;-54
2022/03/13 04:22:56;;;;;;;1.95;1.80;;;22.50;63.30;;;;;;4965659;28;95670;-55
2022/03/13 04:25:29;;;;;;;2.13;1.92;;;22.40;62.70;;;;;;4965741;28;95603;-56
2022/03/13 04:28:00;;;;;;;1.90;1.67;;;22.40;61.60;;;;;;4964397;28;96065;-56
2022/03/13 04:30:31;;;;;;;2.67;1.48;;;22.40;62.10;;;;;;4956593;28;95868;-58
2022/03/13 04:33:02;;;;;;;2.00;1.58;;;22.40;61.30;;;;;;4964703;28;95927;-58
2022/03/13 04:35:34;;;;;;;1.60;1.50;;;22.40;61.40;;;;;;4965494;28;95925;-53
2022/03/13 04:38:04;;;;;;;4.25;1.98;;;22.40;61.00;;;;;;4964532;28;95803;-57
2022/03/13 04:40:35;;;;;;;1.73;1.63;;;22.40;60.10;;;;;;4957293;28;95852;-55
2022/03/13 04:43:07;;;;;;;1.70;1.60;;;22.40;60.10;;;;;;4959758;28;96091;-54
2022/03/13 04:45:38;;;;;;;1.83;1.70;;;22.40;59.80;;;;;;4959422;28;95526;-57
2022/03/13 04:48:09;;;;;;;3.25;1.50;;;22.40;59.70;;;;;;4967417;28;96468;-57
2022/03/13 04:50:40;;;;;;;;;;;22.30;59.80;;;;;;4968424;28;95911;-54
2022/03/13 04:53:11;;;;;;;3.60;1.70;;;22.30;58.50;;;;;;4970157;28;95861;-58
2022/03/13 04:55:42;;;;;;;2.58;1.55;;;22.30;59.50;;;;;;4968291;28;95817;-56
2022/03/13 04:58:18;;;;;;;2.45;1.40;;;22.30;59.40;;;;;;4968418;28;96575;-54
2022/03/13 05:00:48;;;;;;;1.77;1.67;;;22.30;60.00;;;;;;4960654;28;96426;-57
2022/03/13 05:03:19;;;;;;;1.60;1.50;;;22.30;58.90;;;;;;4972613;28;95993;-59
2022/03/13 05:05:50;;;;;;;1.60;1.50;;;22.30;58.80;;;;;;4975343;28;95622;-58
2022/03/13 05:08:20;;;;;;;1.30;1.20;;;22.30;58.30;;;;;;4956506;28;98153;-58
2022/03/13 05:10:51;;;;;;;4.15;1.70;;;22.30;58.60;;;;;;4980814;28;96073;-59
2022/03/13 05:13:24;;;;;;;1.50;1.38;;;22.30;58.00;;;;;;4977771;28;95689;-57
2022/03/13 05:15:56;;;;;;;1.27;1.10;;;22.30;58.20;;;;;;4968270;28;95850;-57
2022/03/13 05:18:29;;;;;;;1.70;1.25;;;22.30;58.20;;;;;;4967781;28;96438;-55
2022/03/13 05:20:59;;;;;;;1.45;1.35;;;22.30;57.80;;;;;;4966293;28;95498;-58
2022/03/13 05:23:29;;;;;;;3.20;1.55;;;22.30;58.10;;;;;;4968722;28;95839;-59
2022/03/13 05:26:01;;;;;;;3.10;1.67;;;22.30;57.40;;;;;;4968662;28;96671;-57
2022/03/13 05:28:32;;;;;;;2.13;1.20;;;22.30;57.70;;;;;;4967132;28;95865;-58
2022/03/13 05:31:04;;;;;;;1.38;1.27;;;22.30;57.90;;;;;;4961616;28;95730;-59
2022/03/13 05:33:36;;;;;;;3.22;1.40;;;22.30;57.80;;;;;;4969200;28;96956;-59
2022/03/13 05:36:08;;;;;;;4.53;1.58;;;22.30;57.20;;;;;;4951402;28;97947;-58
2022/03/13 05:38:40;;;;;;;1.75;1.65;;;22.30;56.90;;;;;;4967342;28;95898;-57
2022/03/13 05:41:14;;;;;;;2.85;1.27;;;22.30;57.10;;;;;;4961104;28;96137;-57
2022/03/13 05:43:49;;;;;;;1.58;1.17;;;22.30;56.80;;;;;;4963377;28;98674;-53
2022/03/13 05:46:21;;;;;;;1.50;1.10;;;22.40;57.30;;;;;;4959787;28;95666;-60
2022/03/13 05:48:53;;;;;;;2.22;1.02;;;22.50;57.60;;;;;;4966589;28;96529;-57
2022/03/13 05:51:26;;;;;;;1.65;1.13;;;22.50;56.80;;;;;;4951702;28;97015;-55
2022/03/13 05:54:01;;;;;;;2.92;1.20;;;22.50;56.80;;;;;;4964431;28;95439;-53
2022/03/13 05:56:33;;;;;;;1.15;1.08;;;22.60;56.70;;;;;;4965492;28;95828;-56
2022/03/13 05:59:04;;;;;;;1.70;1.42;;;22.60;56.40;;;;;;4965352;28;96695;-53
2022/03/13 06:01:34;;;;;;;1.10;1.10;;;22.70;56.50;;;;;;4957480;28;95791;-52
2022/03/13 06:04:05;;;;;;;1.23;1.10;;;22.70;56.10;;;;;;4964649;28;95708;-55
2022/03/13 06:06:36;;;;;;;1.20;1.05;;;22.70;55.90;;;;;;4964850;28;95753;-53
2022/03/13 06:09:06;;;;;;;1.00;0.98;;;22.70;55.80;;;;;;4963699;28;95991;-52
2022/03/13 06:11:37;;;;;;;1.10;1.10;;;22.70;55.70;;;;;;4962684;28;96002;-54
2022/03/13 06:14:08;;;;;;;1.52;1.23;;;22.80;55.50;;;;;;4964445;28;95893;-52
2022/03/13 06:16:39;;;;;;;1.00;1.00;;;22.80;55.20;;;;;;4961451;28;98818;-56
2022/03/13 06:19:10;;;;;;;2.65;1.27;;;22.80;55.60;;;;;;4972082;28;95886;-53
2022/03/13 06:21:41;;;;;;;0.82;0.82;;;22.80;55.00;;;;;;4973552;28;95463;-55
2022/03/13 06:24:13;;;;;;;1.10;0.93;;;22.80;54.90;;;;;;4970540;28;96235;-52
2022/03/13 06:26:45;;;;;;;1.08;0.75;;;22.80;54.80;;;;;;4982143;28;96017;-53
2022/03/13 06:29:16;;;;;;;1.45;1.10;;;22.80;54.70;;;;;;4967626;28;95863;-54
2022/03/13 06:31:47;;;;;;;;;;;22.80;55.70;;;;;;4965758;28;96502;-52
2022/03/13 06:34:18;;;;;;;1.90;1.30;;;22.90;54.50;;;;;;4969325;28;95997;-55
2022/03/13 06:36:48;;;;;;;1.00;1.00;;;22.80;54.50;;;;;;4985430;28;95344;-53
2022/03/13 06:39:20;;;;;;;1.30;1.20;;;22.90;54.40;;;;;;4969937;28;97314;-52
2022/03/13 06:41:51;;;;;;;1.20;1.10;;;22.90;54.50;;;;;;4958869;28;95966;-54
2022/03/13 06:44:23;;;;;;;1.50;1.15;;;22.90;54.60;;;;;;4996510;28;95729;-53
2022/03/13 06:46:53;;;;;;;;;;;22.90;54.30;;;;;;4959919;28;95334;-54
2022/03/13 06:49:23;;;;;;;1.73;1.10;;;22.90;54.40;;;;;;4966607;28;95818;-54
2022/03/13 06:51:53;;;;;;;1.00;0.90;;;22.90;54.30;;;;;;4963638;28;96046;-56
2022/03/13 06:54:25;;;;;;;1.20;1.10;;;22.90;54.10;;;;;;4964995;28;95704;-52
2022/03/13 06:56:55;;;;;;;1.05;0.98;;;22.90;54.20;;;;;;4965788;28;95814;-54
2022/03/13 06:59:26;;;;;;;0.98;0.90;;;22.90;54.20;;;;;;4964044;28;96346;-54
2022/03/13 07:01:57;;;;;;;1.83;1.00;;;22.90;54.00;;;;;;4955177;28;95574;-57
2022/03/13 07:04:27;;;;;;;1.53;1.23;;;22.90;54.00;;;;;;4964102;28;95863;-55
2022/03/13 07:06:57;;;;;;;1.43;1.10;;;22.90;54.20;;;;;;4965873;28;95676;-53
2022/03/13 07:09:27;;;;;;;2.05;0.88;;;23.00;54.00;;;;;;4964801;28;96439;-54
2022/03/13 07:11:59;;;;;;;1.35;1.20;;;22.90;53.90;;;;;;4963290;28;97356;-54
2022/03/13 07:14:31;;;;;;;0.93;0.90;;;22.90;53.60;;;;;;4965791;28;95371;-57
2022/03/13 07:17:02;;;;;;;0.68;0.68;;;22.90;53.80;;;;;;4956929;28;95785;-54
2022/03/13 07:19:34;;;;;;;1.10;1.00;;;23.00;53.60;;;;;;4964694;28;95912;-54
2022/03/13 07:22:05;;;;;;;0.90;0.90;;;23.00;53.50;;;;;;4965089;28;96121;-55
2022/03/13 07:24:36;;;;;;;0.80;0.80;;;23.00;53.70;;;;;;4967078;28;95917;-57
2022/03/13 07:27:08;;;;;;;0.80;0.80;;;23.00;53.60;;;;;;4960781;28;95997;-54
2022/03/13 07:29:39;;;;;;;0.90;0.80;;;23.00;53.60;;;;;;4960321;28;95954;-54
2022/03/13 07:32:10;;;;;;;2.05;1.25;;;23.00;53.40;;;;;;4956880;28;96124;-54
2022/03/13 07:34:41;;;;;;;0.98;0.80;;;23.00;53.40;;;;;;4996233;28;95809;-55
2022/03/13 07:37:11;;;;;;;1.50;0.90;;;23.00;53.40;;;;;;4966381;28;95279;-53
2022/03/13 07:39:47;;;;;;;1.95;0.98;;;23.00;53.20;;;;;;4963100;28;96186;-56
2022/03/13 07:42:17;;;;;;;1.00;1.00;;;23.00;53.10;;;;;;4955158;28;95795;-53
2022/03/13 07:44:48;;;;;;;1.05;0.90;;;23.00;53.10;;;;;;4965765;28;95752;-57
2022/03/13 07:47:19;;;;;;;0.70;0.70;;;23.00;53.10;;;;;;4958300;28;97997;-54
2022/03/13 07:49:49;;;;;;;0.90;0.85;;;23.00;53.30;;;;;;4963571;28;97298;-54
2022/03/13 07:52:19;;;;;;;1.00;0.88;;;23.00;53.50;;;;;;4963405;28;95918;-53
2022/03/13 07:54:50;;;;;;;1.08;0.98;;;23.00;53.40;;;;;;4963284;28;95858;-54
2022/03/13 07:57:21;;;;;;;0.98;0.98;;;23.00;53.50;;;;;;4964148;28;96321;-55
2022/03/13 07:59:52;;;;;;;2.95;1.50;;;23.00;53.70;;;;;;4961429;28;95917;-56
2022/03/13 08:02:27;;;;;;;1.55;1.23;;;23.00;53.80;;;;;;4956228;28;95800;-58
2022/03/13 08:04:56;;;;;;;2.30;1.52;;;23.00;53.90;;;;;;4963685;28;96303;-57
2022/03/13 08:07:27;;;;;;;3.67;1.80;;;23.00;54.10;;;;;;4974980;28;95455;-56
2022/03/13 08:09:58;;;;;;;2.80;1.90;;;23.10;54.10;;;;;;4966618;28;95969;-57
2022/03/13 08:12:30;;;;;;;1.95;1.75;;;23.00;53.90;;;;;;4966980;28;96646;-57
2022/03/13 08:15:00;;;;;;;1.92;1.73;;;22.90;54.10;;;;;;4966957;28;95925;-57
2022/03/13 08:17:31;;;;;;;;;;;22.90;54.30;;;;;;4960099;28;98742;-56
2022/03/13 08:20:07;;;;;;;4.00;3.03;;;22.90;54.40;;;;;;4968119;28;95772;-52
2022/03/13 08:22:38;;;;;;;3.05;2.60;;;22.80;54.50;;;;;;4965412;28;95924;-52
2022/03/13 08:25:10;;;;;;;2.60;2.22;;;22.80;54.80;;;;;;4965177;28;96097;-54
2022/03/13 08:27:41;;;;;;;4.13;2.90;;;22.80;54.90;;;;;;4967713;28;97897;-53
2022/03/13 08:30:13;;;;;;;2.53;2.33;;;22.80;55.60;;;;;;4947053;28;96619;-51
2022/03/13 08:32:44;;;;;;;6.20;3.05;;;22.70;55.90;;;;;;4970791;28;101918;-55
2022/03/13 08:35:16;;;;;;;4.32;3.20;;;22.80;57.10;;;;;;4973270;28;95642;-54
2022/03/13 08:37:52;;;;;;;4.68;3.55;;;22.80;55.70;;;;;;4974181;28;95608;-52
2022/03/13 08:40:29;;;;;;;3.75;3.45;;;22.80;58.50;;;;;;4963697;28;95958;-55
2022/03/13 08:43:00;;;;;;;4.10;3.47;;;22.80;58.90;;;;;;4964017;28;95550;-53
2022/03/13 08:45:32;;;;;;;3.60;3.30;;;22.80;59.20;;;;;;4962538;28;97021;-52
2022/03/13 08:48:03;;;;;;;5.70;3.80;;;22.80;59.40;;;;;;4965867;28;95702;-51
2022/03/13 08:50:36;;;;;;;4.43;3.45;;;22.90;59.70;;;;;;4966012;28;95832;-57
2022/03/13 08:53:07;;;;;;;4.10;3.70;;;22.90;60.20;;;;;;4966205;28;95859;-53
2022/03/13 08:55:38;;;;;;;4.47;4.07;;;22.90;61.50;;;;;;4964862;28;95869;-52
2022/03/13 08:58:09;;;;;;;4.05;3.58;;;22.80;61.10;;;;;;4965015;28;95987;-51
2022/03/13 09:00:45;;;;;;;4.72;4.03;;;22.90;61.70;;;;;;4956281;28;95888;-55
2022/03/13 09:03:15;;;;;;;4.40;4.00;;;22.90;61.90;;;;;;4970365;28;95938;-53
2022/03/13 09:05:47;;;;;;;5.80;3.73;;;22.80;62.40;;;;;;4966989;28;97840;-52
2022/03/13 09:08:17;;;;;;;5.40;3.95;;;22.80;62.70;;;;;;4965876;28;95922;-52
2022/03/13 09:10:48;;;;;;;;;;;22.80;63.10;;;;;;4967977;28;96426;-51
2022/03/13 09:13:20;;;;;;;4.78;4.05;;;22.80;63.40;;;;;;4967819;28;95946;-52
2022/03/13 09:15:51;;;;;;;;;;;22.80;63.60;;;;;;4960374;28;96742;-52
2022/03/13 09:18:22;;;;;;;5.60;4.55;;;22.90;64.00;;;;;;4970691;28;95756;-56
2022/03/13 09:21:00;;;;;;;4.28;3.88;;;22.80;64.30;;;;;;4969139;28;95865;-53
2022/03/13 09:23:30;;;;;;;6.15;4.68;;;22.80;64.40;;;;;;4967779;28;95835;-56
2022/03/13 09:26:01;;;;;;;8.43;6.43;;;22.80;64.70;;;;;;4967082;28;95793;-53
2022/03/13 09:28:32;;;;;;;9.07;6.95;;;22.90;65.10;;;;;;4968759;28;96017;-52
2022/03/13 09:31:03;;;;;;;9.43;8.50;;;22.80;65.30;;;;;;4973472;28;97580;-52
2022/03/13 09:33:35;;;;;;;11.52;9.77;;;22.90;65.50;;;;;;4983727;28;95786;-55
2022/03/13 09:36:07;;;;;;;11.68;10.48;;;22.80;65.70;;;;;;4969913;28;96267;-55
2022/03/13 09:38:39;;;;;;;14.40;12.43;;;22.80;65.80;;;;;;4969555;28;96158;-54
2022/03/13 09:41:09;;;;;;;18.17;13.48;;;22.80;65.90;;;;;;4959495;28;96803;-53
2022/03/13 09:43:40;;;;;;;;;;;22.80;65.90;;;;;;4967014;28;95685;-55
2022/03/13 09:46:12;;;;;;;17.73;15.80;;;22.80;66.00;;;;;;4962106;28;96139;-53
2022/03/13 09:48:44;;;;;;;17.25;15.43;;;22.80;66.00;;;;;;4971823;28;95912;-52
2022/03/13 09:51:14;;;;;;;18.50;16.58;;;22.80;66.10;;;;;;4974243;28;95836;-55
2022/03/13 09:53:46;;;;;;;;;;;22.80;66.20;;;;;;4972833;28;95861;-52
2022/03/13 09:56:17;;;;;;;20.00;17.85;;;22.80;66.30;;;;;;4973270;28;95591;-55
2022/03/13 09:58:48;;;;;;;21.23;19.08;;;22.80;66.50;;;;;;4975881;28;95612;-53
2022/03/13 10:01:19;;;;;;;21.77;19.45;;;22.80;66.50;;;;;;4966033;28;96528;-53
2022/03/13 10:03:51;;;;;;;22.35;19.42;;;22.80;66.70;;;;;;4967260;28;96059;-53
2022/03/13 10:06:21;;;;;;;21.83;19.43;;;22.80;66.70;;;;;;4969349;28;95888;-51
2022/03/13 10:08:51;;;;;;;22.65;20.10;;;22.70;66.60;;;;;;4974957;28;95258;-56
2022/03/13 10:11:35;;;;;;;;;;;22.70;66.80;;;;;;4969071;28;95903;-55
2022/03/13 10:14:07;;;;;;;22.02;19.73;;;22.70;66.80;;;;;;4972733;28;95573;-51
2022/03/13 10:16:41;;;;;;;24.17;20.95;;;22.70;66.90;;;;;;4962809;28;96029;-54
2022/03/13 10:19:19;;;;;;;21.65;19.33;;;22.70;67.00;;;;;;4966636;28;95345;-53
2022/03/13 10:22:06;;;;;;;23.23;20.27;;;22.70;67.00;;;;;;4964959;28;95916;-52
2022/03/13 10:24:46;;;;;;;22.83;20.40;;;22.60;67.00;;;;;;4965972;28;96877;-54
2022/03/13 10:27:20;;;;;;;23.08;20.65;;;22.70;67.10;;;;;;4966753;28;97188;-53
2022/03/13 10:29:51;;;;;;;21.42;19.17;;;22.60;67.00;;;;;;4966699;28;96105;-54
2022/03/13 10:32:21;;;;;;;;;;;22.60;67.10;;;;;;4965348;28;96068;-53
2022/03/13 10:35:01;;;;;;;21.58;19.33;;;22.60;67.20;;;;;;4964966;28;95440;-56
2022/03/13 10:37:42;;;;;;;23.70;19.55;;;22.60;67.30;;;;;;4954508;28;98328;-53
2022/03/13 10:40:22;;;;;;;21.15;18.42;;;22.70;67.30;;;;;;4961018;28;96355;-57
2022/03/13 10:42:58;;;;;;;21.17;19.08;;;22.80;67.30;;;;;;4958571;28;95781;-55
2022/03/13 10:45:39;;;;;;;21.33;19.08;;;22.70;67.10;;;;;;4956394;28;96223;-56
2022/03/13 10:48:36;;;;;;;20.60;18.42;;;22.70;67.00;;;;;;4966201;28;97131;-54
2022/03/13 10:51:12;;;;;;;21.05;18.80;;;22.80;66.90;;;;;;4964416;28;95728;-55
2022/03/13 10:53:43;;;;;;;20.92;18.83;;;22.80;65.80;;;;;;4961129;28;96705;-56
2022/03/13 10:56:15;;;;;;;19.70;17.70;;;22.80;67.00;;;;;;4963064;28;95924;-54
2022/03/13 10:58:51;;;;;;;18.70;16.80;;;22.80;67.00;;;;;;4963662;28;96057;-58
2022/03/13 11:01:23;;;;;;;17.35;15.60;;;22.80;66.80;;;;;;4956160;28;97018;-58
2022/03/13 11:03:56;;;;;;;19.50;17.55;;;22.90;66.60;;;;;;4960941;28;97322;-55
2022/03/13 11:06:28;;;;;;;18.90;17.02;;;22.90;66.30;;;;;;4964038;28;96355;-55
2022/03/13 11:09:00;;;;;;;19.95;17.85;;;23.10;66.50;;;;;;4979425;28;95885;-59
2022/03/13 11:11:32;;;;;;;18.73;16.88;;;23.10;67.00;;;;;;4961790;28;95927;-55
2022/03/13 11:14:05;;;;;;;18.92;16.92;;;23.10;64.30;;;;;;4964945;28;95905;-58
2022/03/13 11:16:36;;;;;;;18.63;16.45;;;23.00;63.20;;;;;;4961065;28;96172;-57
2022/03/13 11:19:09;;;;;;;17.23;15.43;;;22.90;62.10;;;;;;4969366;28;95753;-57
2022/03/13 11:21:40;;;;;;;15.93;14.35;;;22.90;61.60;;;;;;4968437;28;95815;-57
2022/03/13 11:24:11;;;;;;;15.60;13.85;;;22.90;59.90;;;;;;4966332;28;95731;-57
2022/03/13 11:26:44;;;;;;;15.75;14.15;;;22.80;61.90;;;;;;4961604;28;95665;-55
2022/03/13 11:29:15;;;;;;;16.48;14.57;;;22.80;62.30;;;;;;4962720;28;95765;-55
2022/03/13 11:31:47;;;;;;;14.90;13.25;;;22.80;62.60;;;;;;4947962;28;95918;-58
2022/03/13 11:34:21;;;;;;;14.63;13.13;;;22.80;63.10;;;;;;4948959;28;96346;-59
2022/03/13 11:36:53;;;;;;;15.82;12.52;;;22.90;63.50;;;;;;4950135;28;95944;-58
2022/03/13 11:39:30;;;;;;;15.77;13.73;;;22.90;63.60;;;;;;4948278;28;95980;-59
2022/03/13 11:42:03;;;;;;;14.52;13.02;;;23.10;63.80;;;;;;4943090;28;95824;-60
2022/03/13 11:44:38;;;;;;;15.15;13.75;;;23.10;63.90;;;;;;4948432;28;96607;-61
2022/03/13 11:47:23;;;;;;;14.02;12.55;;;23.20;64.00;;;;;;4955160;28;96018;-59
2022/03/13 11:49:54;;;;;;;14.05;12.65;;;23.20;64.10;;;;;;4969685;28;95717;-55
2022/03/13 11:52:31;;;;;;;13.70;12.25;;;23.30;64.20;;;;;;4969143;28;95909;-57
2022/03/13 11:55:04;;;;;;;13.18;11.88;;;23.30;64.40;;;;;;4967866;28;96910;-57
2022/03/13 11:57:50;;;;;;;11.68;10.57;;;23.30;64.50;;;;;;4965596;28;95981;-56
2022/03/13 12:00:21;;;;;;;12.30;10.93;;;23.20;64.70;;;;;;4961256;28;95814;-55
2022/03/13 12:02:51;;;;;;;11.32;10.32;;;23.20;65.00;;;;;;4968516;28;95400;-61
2022/03/13 12:05:29;;;;;;;12.45;11.25;;;23.20;65.20;;;;;;4967240;28;95879;-55
2022/03/13 12:08:08;;;;;;;12.52;11.23;;;23.20;65.40;;;;;;4965568;28;95342;-52
2022/03/13 12:10:45;;;;;;;12.07;10.88;;;23.30;65.60;;;;;;4968405;28;95672;-58
2022/03/13 12:13:18;;;;;;;12.18;10.98;;;23.40;65.70;;;;;;4967817;28;96324;-61
2022/03/13 12:15:49;;;;;;;11.50;10.30;;;23.40;65.60;;;;;;4956593;28;97790;-55
2022/03/13 12:18:29;;;;;;;11.50;10.43;;;23.40;65.50;;;;;;4967532;28;95721;-60
2022/03/13 12:21:11;;;;;;;11.20;10.10;;;23.50;65.50;;;;;;4969228;28;96416;-58
2022/03/13 12:23:43;;;;;;;10.95;9.65;;;23.50;65.40;;;;;;4966986;28;95447;-56
2022/03/13 12:26:38;;;;;;;10.43;9.43;;;23.50;65.20;;;;;;4968706;28;96402;-55
2022/03/13 12:29:15;;;;;;;10.63;9.52;;;23.50;65.50;;;;;;4968104;28;96006;-54
2022/03/13 12:31:48;;;;;;;10.07;8.98;;;23.50;65.60;;;;;;4961076;28;95892;-58
2022/03/13 12:34:32;;;;;;;11.23;10.13;;;23.60;65.60;;;;;;4966976;28;97057;-56
2022/03/13 12:37:09;;;;;;;9.68;8.68;;;23.70;65.50;;;;;;4969687;28;95932;-57
2022/03/13 12:39:59;;;;;;;9.68;8.77;;;23.70;65.50;;;;;;4970760;28;95861;-57
2022/03/13 12:42:37;;;;;;;9.73;8.82;;;23.70;65.30;;;;;;4968759;28;95743;-55
2022/03/13 12:45:12;;;;;;;9.07;8.20;;;23.70;65.30;;;;;;4972218;28;95638;-59
2022/03/13 12:47:47;;;;;;;8.50;7.80;;;23.80;65.30;;;;;;4966989;28;95946;-54
2022/03/13 12:50:19;;;;;;;9.82;8.65;;;23.90;65.30;;;;;;4973367;28;95350;-54
2022/03/13 12:53:02;;;;;;;8.55;7.68;;;23.90;65.20;;;;;;4973763;28;95944;-54
2022/03/13 12:55:33;;;;;;;8.07;7.30;;;24.00;65.10;;;;;;4975275;28;95734;-53
2022/03/13 12:58:05;;;;;;;9.10;8.23;;;24.10;64.80;;;;;;4970230;28;96550;-56
2022/03/13 13:00:37;;;;;;;9.43;8.45;;;24.20;63.80;;;;;;4953205;28;95999;-59
2022/03/13 13:03:08;;;;;;;9.32;8.40;;;24.20;63.30;;;;;;4974579;28;95363;-56
2022/03/13 13:05:51;;;;;;;8.23;7.40;;;24.30;63.20;;;;;;4973594;28;95402;-54
2022/03/13 13:08:24;;;;;;;8.57;7.75;;;24.30;63.50;;;;;;4971756;28;95705;-53
2022/03/13 13:10:58;;;;;;;8.98;8.07;;;24.40;63.30;;;;;;4973965;28;95760;-54
2022/03/13 13:13:30;;;;;;;7.50;6.78;;;24.60;63.30;;;;;;4973942;28;95395;-53